KSLI

Los Alamitos AAF Airport

Los Alamitos, California, USA
METAR KSLI 181558Z 00000KT 10SM CLR 19/07 A3007 RMK AO2A SLP186 T01860067
Observed Flight Rules
Oct-18 @ 15:58 UTC (24 minutes ago) Visual Flight Rules
Visibility Clouds
10 miles
  • Clear skies
Temperatures Readings
Current 19°C / 66°F
Dewpoint 7°C / 45°F
Humidity 46%
Altimeter 30.07" Hg
Pressure 1018.6 hPa
Elevation 11
METAR KSLI 181558Z 00000KT 10SM CLR 19/07 A3007 RMK AO2A SLP186 T01860067
Observed Flight Rules
Oct-18 @ 15:58 UTC
(24 minutes ago)
VFR
Clouds
  • Clear skies
Temperature Dewpoint
19°C / 66°F 7°C / 45°F
Humidity Altimeter Pressure
46% 30.07" Hg 1018.6 hPa